DLC weather

Zhoushuizi Airport
Dalian, Liaoning Province, China

Public forecast

Using degrees Celsius for public forecast. Weather courtesy of forecast.io.

METAR (pilot weather report)

Retrieved 2019/04/21 06:00 UTC (9 minutes ago):

ZYTL 210600Z 08004MPS CAVOK 18/M03 Q1015 NOSIG

TAF (pilot weather forecast)

Retrieved 2019/04/21 06:00 UTC (9 minutes ago):

TAF ZYTL 210318Z 2106/2206 12004MPS 5000 BR SCT040 TX16/2106Z TN08/2121Z